Time;durP1;ratioP1;P1;durP2;ratioP2;P2;SDS_P1;SDS_P2;PMS_P1;PMS_P2;Temp;Humidity;BMP_temperature;BMP_pressure;BME280_temperature;BME280_humidity;BME280_pressure;Samples;Min_cycle;Max_cycle;Signal;HPM_P1;HPM_P2
2023/12/20 00:00:37;;;;;;;0.50;0.50;;;;;;;;;;5031057;28;20049;-80
2023/12/20 00:03:17;;;;;;;1.60;1.50;;;;;;;;;;5015732;28;20541;-81
2023/12/20 00:05:48;;;;;;;0.05;0.05;;;;;;;;;;5016118;28;20109;-81
2023/12/20 00:08:31;;;;;;;1.85;1.75;;;;;;;;;;5001203;28;20697;-81
2023/12/20 00:11:36;;;;;;;0.30;0.30;;;;;;;;;;5030623;28;20049;-81
2023/12/20 00:14:40;;;;;;;0.60;0.60;;;;;;;;;;5011607;28;20395;-79
2023/12/20 00:17:08;;;;;;;2.30;2.10;;;;;;;;;;5017583;28;20052;-79
2023/12/20 00:19:38;;;;;;;1.77;1.67;;;;;;;;;;5008457;28;20492;-79
2023/12/20 00:22:16;;;;;;;1.10;0.85;;;;;;;;;;5024007;28;20050;-79
2023/12/20 00:24:53;;;;;;;1.55;1.45;;;;;;;;;;5025940;28;20042;-79
2023/12/20 00:27:32;;;;;;;0.20;0.20;;;;;;;;;;5011072;28;20137;-79
2023/12/20 00:30:08;;;;;;;0.90;0.90;;;;;;;;;;5026975;28;20041;-79
2023/12/20 00:32:46;;;;;;;2.28;2.17;;;;;;;;;;5021143;28;20049;-79
2023/12/20 00:35:19;;;;;;;1.25;1.25;;;;;;;;;;4996498;28;20065;-80
2023/12/20 00:37:50;;;;;;;0.63;0.63;;;;;;;;;;5021862;28;20055;-79
2023/12/20 00:40:22;;;;;;;1.27;1.17;;;;;;;;;;5011066;28;20056;-79
2023/12/20 00:47:02;;;;;;;1.88;1.77;;;;;;;;;;4957873;28;20059;-78
2023/12/20 00:49:42;;;;;;;2.83;2.45;;;;;;;;;;5028235;28;20049;-80
2023/12/20 00:52:17;;;;;;;1.13;1.13;;;;;;;;;;5031282;28;20041;-79
2023/12/20 00:54:52;;;;;;;0.65;0.65;;;;;;;;;;5012080;28;20049;-80
2023/12/20 00:57:25;;;;;;;1.05;0.98;;;;;;;;;;5016178;28;20578;-80
2023/12/20 01:00:00;;;;;;;1.70;1.60;;;;;;;;;;5030419;28;20060;-78
2023/12/20 01:02:30;;;;;;;1.15;1.15;;;;;;;;;;5026077;28;20111;-80
2023/12/20 01:05:01;;;;;;;1.80;1.70;;;;;;;;;;5030920;28;20053;-81
2023/12/20 01:07:36;;;;;;;2.20;1.30;;;;;;;;;;5014530;28;20442;-79
2023/12/20 01:10:17;;;;;;;2.70;2.50;;;;;;;;;;5014767;28;20137;-80
2023/12/20 01:13:15;;;;;;;0.85;0.85;;;;;;;;;;5032945;28;20041;-79
2023/12/20 01:16:01;;;;;;;1.75;1.05;;;;;;;;;;4994568;28;20057;-79
2023/12/20 01:18:38;;;;;;;0.10;0.10;;;;;;;;;;5028046;28;20103;-78
2023/12/20 01:21:12;;;;;;;1.55;1.45;;;;;;;;;;5034138;28;20048;-80
2023/12/20 01:23:48;;;;;;;0.40;0.40;;;;;;;;;;5023425;28;20539;-80
2023/12/20 01:26:24;;;;;;;1.20;1.10;;;;;;;;;;5008851;28;20059;-79
2023/12/20 01:29:06;;;;;;;2.00;1.90;;;;;;;;;;5030863;28;20615;-80
2023/12/20 01:32:07;;;;;;;0.65;0.65;;;;;;;;;;5027791;28;20049;-80
2023/12/20 01:34:49;;;;;;;2.35;1.70;;;;;;;;;;5027498;28;20116;-81
2023/12/20 01:37:30;;;;;;;0.82;0.82;;;;;;;;;;5022573;28;20045;-79
2023/12/20 01:40:04;;;;;;;1.60;1.50;;;;;;;;;;5030842;28;20421;-80
2023/12/20 01:42:47;;;;;;;0.20;0.20;;;;;;;;;;5018137;28;20049;-79
2023/12/20 01:45:48;;;;;;;3.03;1.52;;;;;;;;;;5012815;28;20124;-79
2023/12/20 01:48:23;;;;;;;0.10;0.10;;;;;;;;;;5032289;28;20044;-79
2023/12/20 01:51:02;;;;;;;0.17;0.17;;;;;;;;;;5030011;28;20054;-79
2023/12/20 01:53:54;;;;;;;0.57;0.57;;;;;;;;;;5003263;28;20057;-80
2023/12/20 01:56:28;;;;;;;0.22;0.22;;;;;;;;;;5007235;28;20061;-80
2023/12/20 01:59:01;;;;;;;0.75;0.75;;;;;;;;;;5011649;28;20045;-80
2023/12/20 02:01:39;;;;;;;0.73;0.73;;;;;;;;;;5002999;28;20150;-79
2023/12/20 02:04:10;;;;;;;1.73;1.67;;;;;;;;;;4997013;28;20059;-79
2023/12/20 02:06:43;;;;;;;4.38;3.90;;;;;;;;;;5011010;28;20045;-80
2023/12/20 02:09:20;;;;;;;2.75;2.55;;;;;;;;;;5025020;28;20050;-80
2023/12/20 02:11:57;;;;;;;0.63;0.63;;;;;;;;;;5024324;28;20037;-79
2023/12/20 02:14:38;;;;;;;0.80;0.80;;;;;;;;;;5024464;28;20080;-79
2023/12/20 02:17:13;;;;;;;2.20;2.00;;;;;;;;;;5026056;28;20045;-79
2023/12/20 02:22:52;;;;;;;4.70;3.28;;;;;;;;;;5020983;28;20041;-79
2023/12/20 02:25:24;;;;;;;7.03;4.95;;;;;;;;;;5008528;28;20042;-80
2023/12/20 02:28:00;;;;;;;2.08;1.85;;;;;;;;;;5032560;28;20069;-79
2023/12/20 02:30:27;;;;;;;5.18;4.40;;;;;;;;;;5012260;28;20506;-80
2023/12/20 02:32:59;;;;;;;;;;;;;;;;;;5010967;28;20038;-80
2023/12/20 02:35:40;;;;;;;0.73;0.73;;;;;;;;;;5025126;28;19925;-79
2023/12/20 02:38:19;;;;;;;3.67;3.30;;;;;;;;;;5023162;28;20047;-79
2023/12/20 02:40:52;;;;;;;5.55;3.22;;;;;;;;;;5027826;28;20432;-79
2023/12/20 02:43:31;;;;;;;0.55;0.55;;;;;;;;;;5015640;28;20080;-79
2023/12/20 02:46:23;;;;;;;0.77;0.77;;;;;;;;;;5024278;28;20091;-80
2023/12/20 02:49:39;;;;;;;0.82;0.82;;;;;;;;;;5000943;28;20058;-79
2023/12/20 02:52:13;;;;;;;0.68;0.68;;;;;;;;;;5010429;28;20120;-79
2023/12/20 02:54:46;;;;;;;0.47;0.47;;;;;;;;;;5001551;28;20053;-79
2023/12/20 02:57:20;;;;;;;1.30;1.15;;;;;;;;;;5027975;28;20061;-80
2023/12/20 02:59:49;;;;;;;1.20;1.10;;;;;;;;;;5021286;28;20061;-80
2023/12/20 03:02:20;;;;;;;0.43;0.43;;;;;;;;;;5004813;28;20258;-79
2023/12/20 03:07:47;;;;;;;0.63;0.63;;;;;;;;;;5019557;28;20129;-80
2023/12/20 03:10:19;;;;;;;1.25;1.17;;;;;;;;;;4995007;28;20515;-80
2023/12/20 03:12:59;;;;;;;0.50;0.50;;;;;;;;;;5020397;28;20045;-80
2023/12/20 03:15:35;;;;;;;0.10;0.10;;;;;;;;;;5004102;28;20507;-80
2023/12/20 03:18:18;;;;;;;1.40;1.40;;;;;;;;;;5010484;28;20415;-78
2023/12/20 03:20:59;;;;;;;0.13;0.13;;;;;;;;;;5026587;28;20056;-80
2023/12/20 03:23:35;;;;;;;2.47;1.92;;;;;;;;;;5032127;28;20088;-80
2023/12/20 03:26:08;;;;;;;0.43;0.43;;;;;;;;;;5028686;28;20082;-80
2023/12/20 03:28:41;;;;;;;0.28;0.28;;;;;;;;;;5030706;28;20046;-80
2023/12/20 03:31:14;;;;;;;1.15;1.15;;;;;;;;;;5029768;28;20045;-80
2023/12/20 03:33:44;;;;;;;0.70;0.70;;;;;;;;;;5027671;28;20049;-80
2023/12/20 03:36:19;;;;;;;1.38;1.27;;;;;;;;;;5029226;28;20109;-79
2023/12/20 03:38:49;;;;;;;6.85;6.40;;;;;;;;;;5029731;28;20053;-80
2023/12/20 03:41:21;;;;;;;2.03;1.88;;;;;;;;;;5000064;28;20049;-80
2023/12/20 03:43:57;;;;;;;0.30;0.30;;;;;;;;;;5028256;28;20048;-79
2023/12/20 03:46:35;;;;;;;0.80;0.80;;;;;;;;;;5001563;28;20121;-79
2023/12/20 03:49:09;;;;;;;0.20;0.20;;;;;;;;;;5028809;28;20037;-80
2023/12/20 03:51:41;;;;;;;;;;;;;;;;;;5027320;28;20099;-79
2023/12/20 03:54:10;;;;;;;0.35;0.35;;;;;;;;;;5011138;28;19924;-79
2023/12/20 03:56:42;;;;;;;0.30;0.30;;;;;;;;;;5027340;28;20103;-80
2023/12/20 03:59:15;;;;;;;0.20;0.20;;;;;;;;;;5011039;28;20048;-80
2023/12/20 04:01:51;;;;;;;1.60;1.50;;;;;;;;;;5027055;28;20076;-79
2023/12/20 04:04:53;;;;;;;0.47;0.40;;;;;;;;;;5019088;28;20073;-77
2023/12/20 04:07:28;;;;;;;1.27;0.98;;;;;;;;;;5028584;28;20495;-78
2023/12/20 04:10:01;;;;;;;2.95;1.42;;;;;;;;;;5000757;28;20053;-78
2023/12/20 04:12:32;;;;;;;0.45;0.45;;;;;;;;;;5005269;28;20049;-80
2023/12/20 04:15:08;;;;;;;;;;;;;;;;;;5009734;28;20049;-80
2023/12/20 04:17:47;;;;;;;1.55;0.47;;;;;;;;;;5027106;28;20026;-80
2023/12/20 04:20:21;;;;;;;0.65;0.65;;;;;;;;;;5005895;28;20133;-80
2023/12/20 04:22:57;;;;;;;2.17;2.05;;;;;;;;;;5026488;28;20060;-79
2023/12/20 04:25:33;;;;;;;2.03;1.85;;;;;;;;;;5005770;28;20119;-80
2023/12/20 04:28:10;;;;;;;2.03;1.90;;;;;;;;;;5024157;28;20072;-80
2023/12/20 04:30:44;;;;;;;1.35;1.25;;;;;;;;;;5001751;28;20034;-79
2023/12/20 04:33:34;;;;;;;1.60;1.50;;;;;;;;;;5013239;28;20048;-80
2023/12/20 04:36:51;;;;;;;0.60;0.60;;;;;;;;;;4996861;28;20288;-79
2023/12/20 04:39:24;;;;;;;0.40;0.40;;;;;;;;;;4965111;28;20100;-79
2023/12/20 04:42:17;;;;;;;1.00;1.00;;;;;;;;;;5001732;28;20045;-79
2023/12/20 04:45:08;;;;;;;1.38;1.38;;;;;;;;;;5006766;28;20041;-80
2023/12/20 04:47:41;;;;;;;1.85;1.75;;;;;;;;;;5010318;28;20044;-83
2023/12/20 04:50:27;;;;;;;0.40;0.40;;;;;;;;;;5011515;28;20141;-80
2023/12/20 04:53:01;;;;;;;0.68;0.68;;;;;;;;;;5007012;28;20072;-80
2023/12/20 04:55:41;;;;;;;1.40;1.30;;;;;;;;;;5023699;28;20061;-80
2023/12/20 04:58:12;;;;;;;0.30;0.30;;;;;;;;;;5019376;28;20049;-80
2023/12/20 05:00:49;;;;;;;0.88;0.88;;;;;;;;;;5021014;28;20041;-80
2023/12/20 05:03:20;;;;;;;0.30;0.30;;;;;;;;;;5025217;28;20046;-80
2023/12/20 05:05:50;;;;;;;0.40;0.40;;;;;;;;;;5009475;28;20065;-81
2023/12/20 05:08:21;;;;;;;2.22;2.08;;;;;;;;;;5008960;28;20069;-81
2023/12/20 05:10:59;;;;;;;0.45;0.35;;;;;;;;;;5027387;28;20470;-80
2023/12/20 05:13:32;;;;;;;1.10;1.05;;;;;;;;;;5020206;28;20045;-80
2023/12/20 05:19:35;;;;;;;1.23;1.10;;;;;;;;;;5004244;28;21372;-80
2023/12/20 05:22:06;;;;;;;0.75;0.75;;;;;;;;;;5020301;28;20045;-84
2023/12/20 05:25:09;;;;;;;1.60;1.50;;;;;;;;;;5021845;28;20084;-82
2023/12/20 05:27:45;;;;;;;1.15;1.10;;;;;;;;;;5008453;28;20049;-82
2023/12/20 05:30:17;;;;;;;0.63;0.63;;;;;;;;;;5009326;28;20156;-82
2023/12/20 05:32:44;;;;;;;0.65;0.65;;;;;;;;;;5030029;28;20046;-81
2023/12/20 05:35:17;;;;;;;1.27;1.27;;;;;;;;;;5029556;28;20674;-81
2023/12/20 05:37:48;;;;;;;;;;;;;;;;;;5026240;28;20037;-79
2023/12/20 05:40:33;;;;;;;0.80;0.80;;;;;;;;;;5011506;28;20015;-81
2023/12/20 05:43:11;;;;;;;1.60;1.50;;;;;;;;;;5023805;28;20057;-81
2023/12/20 05:45:55;;;;;;;3.55;2.45;;;;;;;;;;5031546;28;20687;-81
2023/12/20 05:48:27;;;;;;;2.42;1.60;;;;;;;;;;5012627;28;20041;-82
2023/12/20 05:51:02;;;;;;;0.47;0.35;;;;;;;;;;5033204;28;20064;-82
2023/12/20 05:53:34;;;;;;;0.70;0.70;;;;;;;;;;5030982;28;20066;-81
2023/12/20 05:56:06;;;;;;;0.30;0.30;;;;;;;;;;5012832;28;20319;-81
2023/12/20 05:58:36;;;;;;;2.60;1.73;;;;;;;;;;5031461;28;20041;-82
2023/12/20 06:01:27;;;;;;;1.20;1.15;;;;;;;;;;5030413;28;20104;-84
2023/12/20 06:03:58;;;;;;;2.15;2.05;;;;;;;;;;5021008;28;20038;-82
2023/12/20 06:06:30;;;;;;;1.90;1.30;;;;;;;;;;5023341;28;20710;-81
2023/12/20 06:09:11;;;;;;;1.75;1.25;;;;;;;;;;5008412;28;20045;-81
2023/12/20 06:11:42;;;;;;;0.77;0.77;;;;;;;;;;5006834;28;20507;-82
2023/12/20 06:14:15;;;;;;;0.60;0.60;;;;;;;;;;5029410;28;20069;-82
2023/12/20 06:16:50;;;;;;;1.80;1.70;;;;;;;;;;5030260;28;20483;-82
2023/12/20 06:19:21;;;;;;;0.98;0.98;;;;;;;;;;5031486;28;20073;-82
2023/12/20 06:22:15;;;;;;;1.35;1.30;;;;;;;;;;5022892;28;20500;-82
2023/12/20 06:25:16;;;;;;;0.90;0.90;;;;;;;;;;5024414;28;20462;-82
2023/12/20 06:28:15;;;;;;;0.70;0.70;;;;;;;;;;5023129;28;20025;-81
2023/12/20 06:31:07;;;;;;;2.63;2.33;;;;;;;;;;5022647;28;20038;-81
2023/12/20 06:34:06;;;;;;;1.08;1.08;;;;;;;;;;5024081;28;20045;-83
2023/12/20 06:36:36;;;;;;;3.70;3.33;;;;;;;;;;5005898;28;20065;-82
2023/12/20 06:39:49;;;;;;;2.58;2.38;;;;;;;;;;4998510;28;20052;-83
2023/12/20 06:42:26;;;;;;;2.15;1.95;;;;;;;;;;5015854;28;20045;-82
2023/12/20 06:45:15;;;;;;;1.17;1.13;;;;;;;;;;5019539;28;20121;-82
2023/12/20 06:47:58;;;;;;;6.43;3.28;;;;;;;;;;5025614;28;20066;-83
2023/12/20 06:50:39;;;;;;;10.90;3.15;;;;;;;;;;5022731;28;20048;-82
2023/12/20 06:53:17;;;;;;;3.88;3.53;;;;;;;;;;5008924;28;20072;-82
2023/12/20 06:56:00;;;;;;;2.92;2.25;;;;;;;;;;5018391;28;20051;-83
2023/12/20 06:58:38;;;;;;;4.13;3.72;;;;;;;;;;5019382;28;20099;-84
2023/12/20 07:01:17;;;;;;;0.60;0.60;;;;;;;;;;4992205;28;20119;-84
2023/12/20 07:04:08;;;;;;;9.30;7.32;;;;;;;;;;4999425;28;20060;-83
2023/12/20 07:06:40;;;;;;;2.72;1.67;;;;;;;;;;5027902;28;20049;-84
2023/12/20 07:09:19;;;;;;;3.97;3.58;;;;;;;;;;5021988;28;20061;-83
2023/12/20 07:11:54;;;;;;;1.13;1.05;;;;;;;;;;4993515;28;20050;-83
2023/12/20 07:14:22;;;;;;;3.83;1.73;;;;;;;;;;5028727;28;20597;-83
2023/12/20 07:16:50;;;;;;;2.83;2.58;;;;;;;;;;4997520;28;20130;-83
2023/12/20 07:19:18;;;;;;;1.20;1.15;;;;;;;;;;5009217;28;20053;-83
2023/12/20 07:21:47;;;;;;;1.75;1.50;;;;;;;;;;5009356;28;20046;-83
2023/12/20 07:24:17;;;;;;;1.00;1.00;;;;;;;;;;5026521;28;20511;-83
2023/12/20 07:26:45;;;;;;;1.25;1.23;;;;;;;;;;5027652;28;20091;-83
2023/12/20 07:29:14;;;;;;;1.95;1.85;;;;;;;;;;5023567;28;20120;-83
2023/12/20 07:31:43;;;;;;;2.25;1.90;;;;;;;;;;5008234;28;20050;-84
2023/12/20 07:34:11;;;;;;;2.45;2.05;;;;;;;;;;5030340;28;20104;-84
2023/12/20 07:36:39;;;;;;;2.13;1.65;;;;;;;;;;5014693;28;20065;-83
2023/12/20 07:39:07;;;;;;;2.22;2.08;;;;;;;;;;5024996;28;20046;-84
2023/12/20 07:41:35;;;;;;;2.50;2.30;;;;;;;;;;5031335;28;20069;-83
2023/12/20 07:44:04;;;;;;;2.55;2.28;;;;;;;;;;5011308;28;20064;-83
2023/12/20 07:46:32;;;;;;;2.00;1.92;;;;;;;;;;5005184;28;20054;-83
2023/12/20 07:49:00;;;;;;;0.85;0.85;;;;;;;;;;5012843;28;20719;-83
2023/12/20 07:51:28;;;;;;;2.60;2.40;;;;;;;;;;4995477;28;20087;-83
2023/12/20 07:53:56;;;;;;;3.15;2.80;;;;;;;;;;5030548;28;20133;-84
2023/12/20 07:56:24;;;;;;;1.95;1.88;;;;;;;;;;5011914;28;20050;-83
2023/12/20 07:58:51;;;;;;;4.07;2.35;;;;;;;;;;5026663;28;20053;-83
2023/12/20 08:01:21;;;;;;;1.20;1.10;;;;;;;;;;5008437;28;20053;-84
2023/12/20 08:03:50;;;;;;;0.77;0.70;;;;;;;;;;5010481;28;20061;-83
2023/12/20 08:06:19;;;;;;;3.65;3.28;;;;;;;;;;5011934;28;20037;-83
2023/12/20 08:08:48;;;;;;;1.17;0.90;;;;;;;;;;5022062;28;20045;-83
2023/12/20 08:11:28;;;;;;;1.90;0.57;;;;;;;;;;5005005;28;20066;-83
2023/12/20 08:13:58;;;;;;;1.65;1.55;;;;;;;;;;5004409;28;20046;-83
2023/12/20 08:16:26;;;;;;;2.00;1.63;;;;;;;;;;5023206;28;20045;-83
2023/12/20 08:18:54;;;;;;;1.02;1.02;;;;;;;;;;5011635;28;20061;-83
2023/12/20 08:21:25;;;;;;;0.10;0.10;;;;;;;;;;5024746;28;20041;-83
2023/12/20 08:24:18;;;;;;;2.15;1.95;;;;;;;;;;5001942;28;20042;-93
2023/12/20 08:27:25;;;;;;;0.38;0.38;;;;;;;;;;5016923;23;20052;-77
2023/12/20 08:29:53;;;;;;;1.13;0.98;;;;;;;;;;5029185;28;20053;-77
2023/12/20 08:32:20;;;;;;;2.97;2.60;;;;;;;;;;5019080;28;20183;-77
2023/12/20 08:34:48;;;;;;;3.70;3.40;;;;;;;;;;5021744;28;20511;-79
2023/12/20 08:37:15;;;;;;;3.08;0.65;;;;;;;;;;5009065;28;20065;-79
2023/12/20 08:39:43;;;;;;;0.43;0.43;;;;;;;;;;5008498;28;20093;-79
2023/12/20 08:42:12;;;;;;;1.27;1.17;;;;;;;;;;5003545;28;20530;-79
2023/12/20 08:44:40;;;;;;;0.43;0.43;;;;;;;;;;5005279;28;20049;-79
2023/12/20 08:47:07;;;;;;;1.23;1.13;;;;;;;;;;4973633;28;20436;-79
2023/12/20 08:49:35;;;;;;;0.93;0.93;;;;;;;;;;4998996;28;20042;-78
2023/12/20 08:52:02;;;;;;;2.47;1.88;;;;;;;;;;4989644;28;20061;-79
2023/12/20 08:54:30;;;;;;;1.58;1.40;;;;;;;;;;5006570;28;20404;-79
2023/12/20 08:56:57;;;;;;;2.65;2.35;;;;;;;;;;5006007;28;20427;-80
2023/12/20 08:59:25;;;;;;;3.95;2.20;;;;;;;;;;5003732;28;20053;-78
2023/12/20 09:01:54;;;;;;;0.43;0.43;;;;;;;;;;5004420;28;20049;-79
2023/12/20 09:04:22;;;;;;;3.38;1.73;;;;;;;;;;4992239;28;20082;-78
2023/12/20 09:06:49;;;;;;;0.85;0.85;;;;;;;;;;5011377;28;20117;-79
2023/12/20 09:09:17;;;;;;;5.93;4.20;;;;;;;;;;5008749;28;20054;-79
2023/12/20 09:11:47;;;;;;;1.80;1.00;;;;;;;;;;4988466;28;20041;-79
2023/12/20 09:14:14;;;;;;;3.08;1.90;;;;;;;;;;4989136;28;20054;-79
2023/12/20 09:16:41;;;;;;;1.38;1.27;;;;;;;;;;5010844;28;20506;-79
2023/12/20 09:19:09;;;;;;;4.95;3.83;;;;;;;;;;5009705;28;20038;-78
2023/12/20 09:21:36;;;;;;;5.57;3.83;;;;;;;;;;4995576;28;20073;-79
2023/12/20 09:24:04;;;;;;;1.80;1.70;;;;;;;;;;4987197;28;20053;-79
2023/12/20 09:26:31;;;;;;;1.95;1.77;;;;;;;;;;5007823;28;20523;-79
2023/12/20 09:28:59;;;;;;;11.32;5.28;;;;;;;;;;5001395;28;20042;-79
2023/12/20 09:31:26;;;;;;;0.90;0.90;;;;;;;;;;5007342;28;20152;-78
2023/12/20 09:33:54;;;;;;;13.93;2.33;;;;;;;;;;5003038;28;20056;-78
2023/12/20 09:36:22;;;;;;;0.10;0.10;;;;;;;;;;5004657;28;20053;-79
2023/12/20 09:38:51;;;;;;;11.90;1.38;;;;;;;;;;5016369;28;20048;-78
2023/12/20 09:41:18;;;;;;;1.13;1.13;;;;;;;;;;4988670;28;20196;-78
2023/12/20 09:43:46;;;;;;;1.63;1.52;;;;;;;;;;5009468;28;20138;-79
2023/12/20 09:46:15;;;;;;;2.50;2.40;;;;;;;;;;5007907;28;20049;-79
2023/12/20 09:48:45;;;;;;;4.63;3.05;;;;;;;;;;5017856;28;20053;-78
2023/12/20 09:51:13;;;;;;;2.17;1.98;;;;;;;;;;5004832;28;20076;-79
2023/12/20 09:53:41;;;;;;;0.85;0.85;;;;;;;;;;5007210;28;20080;-79
2023/12/20 09:56:09;;;;;;;0.52;0.52;;;;;;;;;;5010618;28;20050;-79
2023/12/20 09:58:38;;;;;;;1.33;1.25;;;;;;;;;;4993949;28;20042;-79
2023/12/20 10:01:06;;;;;;;0.25;0.25;;;;;;;;;;5004172;28;20061;-77
2023/12/20 10:03:34;;;;;;;0.88;0.60;;;;;;;;;;4995513;28;20045;-79
2023/12/20 10:06:01;;;;;;;0.98;0.98;;;;;;;;;;4997606;28;20042;-78
2023/12/20 10:08:30;;;;;;;2.50;2.30;;;;;;;;;;5011224;28;20077;-79
2023/12/20 10:11:02;;;;;;;0.90;0.90;;;;;;;;;;5006527;28;20042;-79
2023/12/20 10:13:30;;;;;;;1.92;1.60;;;;;;;;;;5008822;28;20053;-79
2023/12/20 10:15:57;;;;;;;4.05;3.63;;;;;;;;;;4995180;28;20058;-79
2023/12/20 10:18:25;;;;;;;1.65;1.27;;;;;;;;;;5008273;28;20450;-79
2023/12/20 10:21:06;;;;;;;1.20;1.20;;;;;;;;;;5009217;28;20237;-79
2023/12/20 10:23:34;;;;;;;5.78;3.80;;;;;;;;;;5010958;28;20046;-80
2023/12/20 10:26:02;;;;;;;0.88;0.88;;;;;;;;;;5011281;28;20050;-78
2023/12/20 10:28:34;;;;;;;1.40;1.25;;;;;;;;;;4990391;28;20050;-78
2023/12/20 10:31:02;;;;;;;0.95;0.95;;;;;;;;;;4992795;28;20041;-77
2023/12/20 10:33:32;;;;;;;0.70;0.70;;;;;;;;;;4997820;28;20374;-79
2023/12/20 10:36:00;;;;;;;0.60;0.57;;;;;;;;;;4981832;28;20041;-79
2023/12/20 10:38:30;;;;;;;0.85;0.85;;;;;;;;;;4994651;28;20049;-78
2023/12/20 10:41:01;;;;;;;1.02;0.98;;;;;;;;;;5005893;28;20053;-79
2023/12/20 10:43:30;;;;;;;0.82;0.77;;;;;;;;;;5004659;28;20133;-78
2023/12/20 10:45:57;;;;;;;0.40;0.28;;;;;;;;;;5009937;28;20840;-78
2023/12/20 10:48:29;;;;;;;1.38;1.30;;;;;;;;;;5005788;28;20630;-79
2023/12/20 10:50:58;;;;;;;2.28;0.93;;;;;;;;;;4989006;28;20042;-78
2023/12/20 10:53:26;;;;;;;0.20;0.20;;;;;;;;;;5008006;28;20508;-79
2023/12/20 10:55:56;;;;;;;0.52;0.52;;;;;;;;;;5003227;28;20352;-78
2023/12/20 10:58:26;;;;;;;0.10;0.10;;;;;;;;;;5003048;28;20533;-76
2023/12/20 11:01:01;;;;;;;0.13;0.13;;;;;;;;;;5004224;28;20162;-76
2023/12/20 11:03:32;;;;;;;0.70;0.70;;;;;;;;;;4976811;28;20049;-75
2023/12/20 11:06:06;;;;;;;0.90;0.73;;;;;;;;;;5003666;28;20132;-76
2023/12/20 11:08:40;;;;;;;0.30;0.30;;;;;;;;;;5010173;28;20081;-75
2023/12/20 11:11:14;;;;;;;0.20;0.20;;;;;;;;;;4980714;28;20057;-77
2023/12/20 11:13:45;;;;;;;0.10;0.10;;;;;;;;;;5006463;28;20132;-77
2023/12/20 11:16:13;;;;;;;0.20;0.20;;;;;;;;;;5003651;28;20065;-77
2023/12/20 11:18:42;;;;;;;0.32;0.32;;;;;;;;;;4987980;28;20068;-77
2023/12/20 11:21:11;;;;;;;0.25;0.25;;;;;;;;;;4998660;28;20053;-77
2023/12/20 11:23:39;;;;;;;0.10;0.10;;;;;;;;;;5006826;28;20042;-77
2023/12/20 11:26:06;;;;;;;0.38;0.38;;;;;;;;;;5009736;28;20125;-78
2023/12/20 11:28:34;;;;;;;14.80;1.98;;;;;;;;;;5007149;28;20046;-78
2023/12/20 11:31:02;;;;;;;0.98;0.50;;;;;;;;;;4989406;28;20069;-77
2023/12/20 11:33:32;;;;;;;0.77;0.77;;;;;;;;;;4971130;28;20054;-78
2023/12/20 11:36:00;;;;;;;0.30;0.30;;;;;;;;;;4999705;28;20318;-77
2023/12/20 11:38:27;;;;;;;0.93;0.93;;;;;;;;;;5002556;28;20076;-77
2023/12/20 11:40:56;;;;;;;0.15;0.15;;;;;;;;;;4973379;28;20045;-78
2023/12/20 11:43:35;;;;;;;0.20;0.20;;;;;;;;;;5008027;28;20041;-78
2023/12/20 11:46:06;;;;;;;0.20;0.20;;;;;;;;;;4994794;28;20038;-77
2023/12/20 11:48:35;;;;;;;0.05;0.05;;;;;;;;;;4991189;28;20050;-78
2023/12/20 11:51:03;;;;;;;0.22;0.22;;;;;;;;;;4977568;28;20042;-78
2023/12/20 11:53:33;;;;;;;0.20;0.20;;;;;;;;;;5001709;28;20049;-76
2023/12/20 11:56:02;;;;;;;1.45;0.38;;;;;;;;;;5000432;28;20050;-77
2023/12/20 11:58:30;;;;;;;0.20;0.20;;;;;;;;;;5006200;28;20424;-77
2023/12/20 12:00:59;;;;;;;0.30;0.30;;;;;;;;;;5003172;28;20084;-78
2023/12/20 12:03:26;;;;;;;0.10;0.10;;;;;;;;;;5003314;28;20042;-77
2023/12/20 12:05:56;;;;;;;0.10;0.10;;;;;;;;;;4997975;28;20524;-77
2023/12/20 12:08:23;;;;;;;0.35;0.35;;;;;;;;;;5004337;28;20046;-77
2023/12/20 12:10:51;;;;;;;0.30;0.30;;;;;;;;;;5005361;28;20041;-78
2023/12/20 12:13:18;;;;;;;0.47;0.47;;;;;;;;;;5009151;28;20066;-79
2023/12/20 12:15:46;;;;;;;0.38;0.38;;;;;;;;;;4986615;28;20050;-79
2023/12/20 12:18:18;;;;;;;0.52;0.52;;;;;;;;;;5011144;28;20054;-79
2023/12/20 12:20:46;;;;;;;0.00;0.00;;;;;;;;;;5006763;28;20045;-79
2023/12/20 12:23:13;;;;;;;0.10;0.10;;;;;;;;;;5017695;28;20100;-77
2023/12/20 12:25:41;;;;;;;0.15;0.15;;;;;;;;;;5014136;28;20050;-79
2023/12/20 12:28:10;;;;;;;0.40;0.40;;;;;;;;;;5022481;28;20041;-79
2023/12/20 12:30:38;;;;;;;0.10;0.10;;;;;;;;;;4995777;28;20058;-78
2023/12/20 12:33:17;;;;;;;0.25;0.25;;;;;;;;;;4994720;28;20056;-75
2023/12/20 12:35:44;;;;;;;0.63;0.63;;;;;;;;;;5014694;28;20053;-78
2023/12/20 12:38:12;;;;;;;0.82;0.82;;;;;;;;;;4991259;28;20085;-78
2023/12/20 12:40:40;;;;;;;0.50;0.50;;;;;;;;;;4992374;28;20058;-79
2023/12/20 12:43:08;;;;;;;0.25;0.25;;;;;;;;;;5005629;28;20050;-78
2023/12/20 12:45:36;;;;;;;0.50;0.50;;;;;;;;;;5008581;28;20054;-78
2023/12/20 12:48:03;;;;;;;0.10;0.10;;;;;;;;;;5004596;28;20054;-78
2023/12/20 12:50:31;;;;;;;1.45;1.25;;;;;;;;;;5009390;28;20054;-78
2023/12/20 12:53:02;;;;;;;0.77;0.77;;;;;;;;;;5006577;28;20052;-78
2023/12/20 12:55:30;;;;;;;0.70;0.70;;;;;;;;;;5001346;28;20084;-78
2023/12/20 12:57:57;;;;;;;0.10;0.10;;;;;;;;;;4999885;28;20042;-78
2023/12/20 13:00:28;;;;;;;2.33;0.88;;;;;;;;;;5000313;28;20048;-78
2023/12/20 13:02:55;;;;;;;0.35;0.35;;;;;;;;;;5004353;28;20054;-78
2023/12/20 13:05:23;;;;;;;0.40;0.40;;;;;;;;;;5008484;28;20053;-79
2023/12/20 13:07:51;;;;;;;0.30;0.30;;;;;;;;;;5010620;28;20030;-78
2023/12/20 13:10:19;;;;;;;0.40;0.40;;;;;;;;;;5004028;28;20104;-78
2023/12/20 13:12:46;;;;;;;0.52;0.52;;;;;;;;;;5008185;28;20049;-79
2023/12/20 13:15:14;;;;;;;0.10;0.10;;;;;;;;;;5012291;28;20096;-78
2023/12/20 13:17:46;;;;;;;0.75;0.75;;;;;;;;;;4984527;28;20069;-78
2023/12/20 13:20:14;;;;;;;0.60;0.60;;;;;;;;;;5009948;28;20072;-79
2023/12/20 13:22:42;;;;;;;1.55;1.23;;;;;;;;;;5011273;28;20062;-78
2023/12/20 13:25:09;;;;;;;0.20;0.20;;;;;;;;;;5007166;28;20044;-78
2023/12/20 13:27:37;;;;;;;0.63;0.63;;;;;;;;;;5009752;28;20057;-78
2023/12/20 13:30:08;;;;;;;1.33;0.88;;;;;;;;;;4987755;28;20104;-78
2023/12/20 13:32:44;;;;;;;0.20;0.20;;;;;;;;;;4991294;28;20124;-78
2023/12/20 13:35:11;;;;;;;0.08;0.08;;;;;;;;;;5000260;28;20084;-78
2023/12/20 13:37:39;;;;;;;0.28;0.28;;;;;;;;;;5008769;28;20054;-78
2023/12/20 13:40:08;;;;;;;0.43;0.43;;;;;;;;;;5001903;28;20511;-78
2023/12/20 13:42:36;;;;;;;0.88;0.60;;;;;;;;;;5005936;28;20060;-78
2023/12/20 13:45:04;;;;;;;0.20;0.20;;;;;;;;;;4997110;28;20040;-78
2023/12/20 13:47:33;;;;;;;1.58;0.15;;;;;;;;;;4996761;28;20041;-78
2023/12/20 13:50:01;;;;;;;0.70;0.40;;;;;;;;;;5004519;28;20172;-79
2023/12/20 13:52:29;;;;;;;0.38;0.38;;;;;;;;;;5008657;28;20057;-78
2023/12/20 13:54:56;;;;;;;0.80;0.65;;;;;;;;;;4993894;28;20050;-78
2023/12/20 13:57:24;;;;;;;0.25;0.25;;;;;;;;;;5009312;28;20054;-77
2023/12/20 14:00:14;;;;;;;0.52;0.52;;;;;;;;;;5007520;28;20042;-78
2023/12/20 14:02:42;;;;;;;0.40;0.40;;;;;;;;;;5006217;28;20500;-78
2023/12/20 14:05:10;;;;;;;0.55;0.20;;;;;;;;;;5006022;28;20138;-78
2023/12/20 14:07:38;;;;;;;0.63;0.63;;;;;;;;;;4991137;28;20041;-78
2023/12/20 14:10:07;;;;;;;1.10;0.85;;;;;;;;;;5007936;28;20104;-78
2023/12/20 14:12:37;;;;;;;0.70;0.70;;;;;;;;;;4998697;28;20136;-79
2023/12/20 14:15:10;;;;;;;2.35;1.45;;;;;;;;;;5000424;28;20081;-78
2023/12/20 14:17:39;;;;;;;0.70;0.70;;;;;;;;;;4996352;28;20572;-78
2023/12/20 14:20:07;;;;;;;1.63;1.52;;;;;;;;;;4977900;28;20054;-78
2023/12/20 14:22:37;;;;;;;1.27;1.27;;;;;;;;;;5007584;28;20069;-79
2023/12/20 14:25:06;;;;;;;0.00;0.00;;;;;;;;;;5007507;28;20464;-79
2023/12/20 14:27:34;;;;;;;0.10;0.10;;;;;;;;;;5004248;28;20046;-79
2023/12/20 14:30:01;;;;;;;0.20;0.20;;;;;;;;;;5002294;28;20038;-79
2023/12/20 14:32:29;;;;;;;3.58;0.85;;;;;;;;;;5008689;28;20042;-78
2023/12/20 14:34:56;;;;;;;0.38;0.38;;;;;;;;;;5013783;28;20057;-78
2023/12/20 14:37:25;;;;;;;0.52;0.52;;;;;;;;;;5009022;28;20104;-78
2023/12/20 14:39:54;;;;;;;3.30;3.05;;;;;;;;;;4999634;28;20054;-78
2023/12/20 14:42:22;;;;;;;0.70;0.40;;;;;;;;;;5008500;28;20132;-78
2023/12/20 14:44:52;;;;;;;3.53;1.88;;;;;;;;;;5006864;28;20045;-78
2023/12/20 14:47:19;;;;;;;0.20;0.20;;;;;;;;;;4994818;28;20049;-78
2023/12/20 14:49:47;;;;;;;0.20;0.20;;;;;;;;;;5012849;28;20053;-78
2023/12/20 14:52:15;;;;;;;0.30;0.30;;;;;;;;;;5006384;28;20119;-78
2023/12/20 14:54:43;;;;;;;1.60;1.08;;;;;;;;;;5010484;28;20515;-78
2023/12/20 14:57:11;;;;;;;0.10;0.10;;;;;;;;;;5008716;28;20088;-78
2023/12/20 14:59:38;;;;;;;0.50;0.50;;;;;;;;;;5013369;28;20062;-79
2023/12/20 15:02:06;;;;;;;0.10;0.10;;;;;;;;;;5004093;28;20084;-78
2023/12/20 15:04:35;;;;;;;1.85;0.77;;;;;;;;;;5008354;28;20048;-77
2023/12/20 15:07:05;;;;;;;0.30;0.30;;;;;;;;;;5011060;28;20038;-78
2023/12/20 15:09:33;;;;;;;0.38;0.38;;;;;;;;;;4993339;28;20053;-78
2023/12/20 15:12:01;;;;;;;0.17;0.17;;;;;;;;;;5007975;28;20487;-77
2023/12/20 15:14:30;;;;;;;0.30;0.30;;;;;;;;;;5012605;28;20053;-78
2023/12/20 15:16:57;;;;;;;0.50;0.50;;;;;;;;;;5011707;28;20056;-78
2023/12/20 15:19:25;;;;;;;0.73;0.43;;;;;;;;;;5014544;28;20050;-77
2023/12/20 15:21:53;;;;;;;0.40;0.40;;;;;;;;;;5012036;28;20042;-76
2023/12/20 15:24:28;;;;;;;0.73;0.73;;;;;;;;;;5011612;28;20045;-76
2023/12/20 15:26:56;;;;;;;0.60;0.60;;;;;;;;;;5013734;28;20546;-78
2023/12/20 15:29:24;;;;;;;0.22;0.22;;;;;;;;;;5013207;28;20053;-78
2023/12/20 15:31:51;;;;;;;0.47;0.47;;;;;;;;;;5012598;28;20062;-77